sensor_id;sensor_type;location;lat;lon;timestamp;temperature;humidity
37956;DHT22;23776;51.592;7.180;2023-04-24T00:01:42;11.40;1.00
37956;DHT22;23776;51.592;7.180;2023-04-24T00:04:08;11.40;1.00
37956;DHT22;23776;51.592;7.180;2023-04-24T00:06:37;11.40;1.00
37956;DHT22;23776;51.592;7.180;2023-04-24T00:09:03;11.40;1.00
37956;DHT22;23776;51.592;7.180;2023-04-24T00:11:30;11.50;99.90
37956;DHT22;23776;51.592;7.180;2023-04-24T00:13:56;11.40;99.90
37956;DHT22;23776;51.592;7.180;2023-04-24T00:16:22;11.50;99.90
37956;DHT22;23776;51.592;7.180;2023-04-24T00:18:48;11.50;99.90
37956;DHT22;23776;51.592;7.180;2023-04-24T00:21:14;11.50;99.90
37956;DHT22;23776;51.592;7.180;2023-04-24T00:23:41;11.40;99.90
37956;DHT22;23776;51.592;7.180;2023-04-24T00:26:06;11.50;1.00
37956;DHT22;23776;51.592;7.180;2023-04-24T00:28:32;11.50;99.90
37956;DHT22;23776;51.592;7.180;2023-04-24T00:30:58;11.50;99.90
37956;DHT22;23776;51.592;7.180;2023-04-24T00:33:23;11.50;1.00
37956;DHT22;23776;51.592;7.180;2023-04-24T00:35:49;12.00;1.00
37956;DHT22;23776;51.592;7.180;2023-04-24T00:38:14;11.60;99.90
37956;DHT22;23776;51.592;7.180;2023-04-24T00:40:40;11.70;99.90
37956;DHT22;23776;51.592;7.180;2023-04-24T00:43:05;11.60;99.90
37956;DHT22;23776;51.592;7.180;2023-04-24T00:45:31;11.60;99.90
37956;DHT22;23776;51.592;7.180;2023-04-24T00:47:57;11.60;99.90
37956;DHT22;23776;51.592;7.180;2023-04-24T00:50:24;11.60;99.90
37956;DHT22;23776;51.592;7.180;2023-04-24T00:52:49;11.60;99.90
37956;DHT22;23776;51.592;7.180;2023-04-24T00:55:16;11.60;99.90
37956;DHT22;23776;51.592;7.180;2023-04-24T00:57:42;11.60;99.90
37956;DHT22;23776;51.592;7.180;2023-04-24T01:00:08;11.40;99.90
37956;DHT22;23776;51.592;7.180;2023-04-24T01:02:41;11.40;99.90
37956;DHT22;23776;51.592;7.180;2023-04-24T01:05:13;11.40;99.90
37956;DHT22;23776;51.592;7.180;2023-04-24T01:07:39;11.30;99.90
37956;DHT22;23776;51.592;7.180;2023-04-24T01:10:07;11.30;99.90
37956;DHT22;23776;51.592;7.180;2023-04-24T01:12:33;11.20;99.90
37956;DHT22;23776;51.592;7.180;2023-04-24T01:14:59;11.20;99.90
37956;DHT22;23776;51.592;7.180;2023-04-24T01:17:25;11.20;99.90
37956;DHT22;23776;51.592;7.180;2023-04-24T01:19:51;11.10;99.90
37956;DHT22;23776;51.592;7.180;2023-04-24T01:22:22;10.80;1.00
37956;DHT22;23776;51.592;7.180;2023-04-24T01:24:47;11.00;1.00
37956;DHT22;23776;51.592;7.180;2023-04-24T01:27:13;11.00;1.00
37956;DHT22;23776;51.592;7.180;2023-04-24T01:29:40;10.90;1.00
37956;DHT22;23776;51.592;7.180;2023-04-24T01:32:06;10.90;1.00
37956;DHT22;23776;51.592;7.180;2023-04-24T01:34:32;10.90;1.00
37956;DHT22;23776;51.592;7.180;2023-04-24T01:36:58;10.90;1.00
37956;DHT22;23776;51.592;7.180;2023-04-24T01:39:24;10.80;1.00
37956;DHT22;23776;51.592;7.180;2023-04-24T01:41:51;10.70;1.00
37956;DHT22;23776;51.592;7.180;2023-04-24T01:44:18;10.60;1.00
37956;DHT22;23776;51.592;7.180;2023-04-24T01:46:43;10.90;1.00
37956;DHT22;23776;51.592;7.180;2023-04-24T01:49:09;10.60;1.00
37956;DHT22;23776;51.592;7.180;2023-04-24T01:51:35;10.50;1.00
37956;DHT22;23776;51.592;7.180;2023-04-24T01:54:01;10.50;1.00
37956;DHT22;23776;51.592;7.180;2023-04-24T01:56:29;10.50;1.00
37956;DHT22;23776;51.592;7.180;2023-04-24T01:58:55;10.50;1.00
37956;DHT22;23776;51.592;7.180;2023-04-24T02:01:23;10.50;1.00
37956;DHT22;23776;51.592;7.180;2023-04-24T02:03:49;10.40;1.00
37956;DHT22;23776;51.592;7.180;2023-04-24T02:06:15;10.30;1.00
37956;DHT22;23776;51.592;7.180;2023-04-24T02:08:41;10.60;1.00
37956;DHT22;23776;51.592;7.180;2023-04-24T02:11:06;10.40;1.00
37956;DHT22;23776;51.592;7.180;2023-04-24T02:13:33;10.20;1.00
37956;DHT22;23776;51.592;7.180;2023-04-24T02:15:59;10.20;1.00
37956;DHT22;23776;51.592;7.180;2023-04-24T02:18:24;10.10;1.00
37956;DHT22;23776;51.592;7.180;2023-04-24T02:20:50;10.20;1.00
37956;DHT22;23776;51.592;7.180;2023-04-24T02:23:15;10.10;1.00
37956;DHT22;23776;51.592;7.180;2023-04-24T02:25:41;10.10;1.00
37956;DHT22;23776;51.592;7.180;2023-04-24T02:28:07;10.10;1.00
37956;DHT22;23776;51.592;7.180;2023-04-24T02:30:32;10.10;1.00
37956;DHT22;23776;51.592;7.180;2023-04-24T02:32:58;10.20;1.00
37956;DHT22;23776;51.592;7.180;2023-04-24T02:35:23;10.10;1.00
37956;DHT22;23776;51.592;7.180;2023-04-24T02:37:49;10.10;1.00
37956;DHT22;23776;51.592;7.180;2023-04-24T02:40:15;10.10;1.00
37956;DHT22;23776;51.592;7.180;2023-04-24T02:42:40;10.00;1.00
37956;DHT22;23776;51.592;7.180;2023-04-24T02:45:06;9.90;1.00
37956;DHT22;23776;51.592;7.180;2023-04-24T02:47:32;10.00;1.00
37956;DHT22;23776;51.592;7.180;2023-04-24T02:49:57;9.90;1.00
37956;DHT22;23776;51.592;7.180;2023-04-24T02:52:23;9.90;1.00
37956;DHT22;23776;51.592;7.180;2023-04-24T02:54:49;9.90;1.00
37956;DHT22;23776;51.592;7.180;2023-04-24T02:57:14;9.90;1.00
37956;DHT22;23776;51.592;7.180;2023-04-24T02:59:40;9.90;1.00
37956;DHT22;23776;51.592;7.180;2023-04-24T03:02:06;10.00;1.00
37956;DHT22;23776;51.592;7.180;2023-04-24T03:04:31;9.80;1.00
37956;DHT22;23776;51.592;7.180;2023-04-24T03:06:57;9.80;1.00
37956;DHT22;23776;51.592;7.180;2023-04-24T03:09:23;9.90;1.00
37956;DHT22;23776;51.592;7.180;2023-04-24T03:11:49;9.80;1.00
37956;DHT22;23776;51.592;7.180;2023-04-24T03:14:15;9.10;1.00
37956;DHT22;23776;51.592;7.180;2023-04-24T03:16:40;9.90;1.00
37956;DHT22;23776;51.592;7.180;2023-04-24T03:19:06;9.80;1.00
37956;DHT22;23776;51.592;7.180;2023-04-24T03:21:32;9.80;1.00
37956;DHT22;23776;51.592;7.180;2023-04-24T03:23:58;9.90;1.00
37956;DHT22;23776;51.592;7.180;2023-04-24T03:26:23;9.80;1.00
37956;DHT22;23776;51.592;7.180;2023-04-24T03:28:49;9.90;1.00
37956;DHT22;23776;51.592;7.180;2023-04-24T03:31:14;9.80;1.00
37956;DHT22;23776;51.592;7.180;2023-04-24T03:33:40;9.80;1.00
37956;DHT22;23776;51.592;7.180;2023-04-24T03:36:06;9.90;1.00
37956;DHT22;23776;51.592;7.180;2023-04-24T03:38:32;9.90;1.00
37956;DHT22;23776;51.592;7.180;2023-04-24T03:40:57;10.00;1.00
37956;DHT22;23776;51.592;7.180;2023-04-24T03:43:23;10.00;1.00
37956;DHT22;23776;51.592;7.180;2023-04-24T03:45:49;10.00;1.00
37956;DHT22;23776;51.592;7.180;2023-04-24T03:48:14;9.90;1.00
37956;DHT22;23776;51.592;7.180;2023-04-24T03:50:40;10.00;1.00
37956;DHT22;23776;51.592;7.180;2023-04-24T03:53:05;10.00;1.00
37956;DHT22;23776;51.592;7.180;2023-04-24T03:55:31;10.00;1.00
37956;DHT22;23776;51.592;7.180;2023-04-24T03:57:56;10.00;1.00
37956;DHT22;23776;51.592;7.180;2023-04-24T04:00:22;9.90;1.00
37956;DHT22;23776;51.592;7.180;2023-04-24T04:02:48;9.90;1.00
37956;DHT22;23776;51.592;7.180;2023-04-24T04:05:13;10.00;1.00
37956;DHT22;23776;51.592;7.180;2023-04-24T04:07:39;9.90;1.00
37956;DHT22;23776;51.592;7.180;2023-04-24T04:10:05;10.00;1.00
37956;DHT22;23776;51.592;7.180;2023-04-24T04:12:32;9.90;1.00
37956;DHT22;23776;51.592;7.180;2023-04-24T04:14:57;10.00;1.00
37956;DHT22;23776;51.592;7.180;2023-04-24T04:17:23;10.00;1.00
37956;DHT22;23776;51.592;7.180;2023-04-24T04:19:48;10.00;1.00
37956;DHT22;23776;51.592;7.180;2023-04-24T04:22:14;10.00;1.00
37956;DHT22;23776;51.592;7.180;2023-04-24T04:24:40;10.00;1.00
37956;DHT22;23776;51.592;7.180;2023-04-24T04:27:06;10.00;1.00
37956;DHT22;23776;51.592;7.180;2023-04-24T04:29:32;10.00;1.00
37956;DHT22;23776;51.592;7.180;2023-04-24T04:31:58;9.90;1.00
37956;DHT22;23776;51.592;7.180;2023-04-24T04:34:23;10.00;1.00
37956;DHT22;23776;51.592;7.180;2023-04-24T04:36:49;10.10;1.00
37956;DHT22;23776;51.592;7.180;2023-04-24T04:39:16;10.00;1.00
37956;DHT22;23776;51.592;7.180;2023-04-24T04:41:42;10.00;1.00
37956;DHT22;23776;51.592;7.180;2023-04-24T04:44:07;10.10;1.00
37956;DHT22;23776;51.592;7.180;2023-04-24T04:46:34;10.00;1.00
37956;DHT22;23776;51.592;7.180;2023-04-24T04:49:01;10.00;1.00
37956;DHT22;23776;51.592;7.180;2023-04-24T04:51:27;10.10;1.00
37956;DHT22;23776;51.592;7.180;2023-04-24T04:53:53;10.10;1.00
37956;DHT22;23776;51.592;7.180;2023-04-24T04:56:18;10.10;1.00
37956;DHT22;23776;51.592;7.180;2023-04-24T04:58:44;10.10;1.00
37956;DHT22;23776;51.592;7.180;2023-04-24T05:01:10;10.00;1.00
37956;DHT22;23776;51.592;7.180;2023-04-24T05:03:35;10.00;1.00
37956;DHT22;23776;51.592;7.180;2023-04-24T05:06:02;10.00;1.00
37956;DHT22;23776;51.592;7.180;2023-04-24T05:08:27;10.10;1.00
37956;DHT22;23776;51.592;7.180;2023-04-24T05:10:54;10.10;1.00
37956;DHT22;23776;51.592;7.180;2023-04-24T05:13:20;10.10;1.00
37956;DHT22;23776;51.592;7.180;2023-04-24T05:15:46;10.10;1.00
37956;DHT22;23776;51.592;7.180;2023-04-24T05:18:12;10.10;1.00
37956;DHT22;23776;51.592;7.180;2023-04-24T05:20:37;10.10;1.00
37956;DHT22;23776;51.592;7.180;2023-04-24T05:23:03;10.10;1.00
37956;DHT22;23776;51.592;7.180;2023-04-24T05:25:28;10.20;1.00
37956;DHT22;23776;51.592;7.180;2023-04-24T05:30:20;10.10;1.00
37956;DHT22;23776;51.592;7.180;2023-04-24T05:32:46;10.10;1.00
37956;DHT22;23776;51.592;7.180;2023-04-24T05:35:11;10.10;1.00
37956;DHT22;23776;51.592;7.180;2023-04-24T05:37:37;10.10;1.00
37956;DHT22;23776;51.592;7.180;2023-04-24T05:40:03;10.20;1.00
37956;DHT22;23776;51.592;7.180;2023-04-24T05:42:30;10.10;1.00
37956;DHT22;23776;51.592;7.180;2023-04-24T05:44:56;10.10;1.00
37956;DHT22;23776;51.592;7.180;2023-04-24T05:47:22;10.10;1.00
37956;DHT22;23776;51.592;7.180;2023-04-24T05:49:48;10.10;1.00
37956;DHT22;23776;51.592;7.180;2023-04-24T05:52:13;10.10;1.00
37956;DHT22;23776;51.592;7.180;2023-04-24T05:54:39;8.30;1.00
37956;DHT22;23776;51.592;7.180;2023-04-24T05:57:05;10.10;1.00
37956;DHT22;23776;51.592;7.180;2023-04-24T05:59:37;9.90;1.00
37956;DHT22;23776;51.592;7.180;2023-04-24T06:02:06;9.80;1.00
37956;DHT22;23776;51.592;7.180;2023-04-24T06:04:32;9.60;1.00
37956;DHT22;23776;51.592;7.180;2023-04-24T06:06:58;9.60;10.30
37956;DHT22;23776;51.592;7.180;2023-04-24T06:09:24;9.50;11.10
37956;DHT22;23776;51.592;7.180;2023-04-24T06:11:50;9.10;15.40
37956;DHT22;23776;51.592;7.180;2023-04-24T06:14:18;9.40;18.60
37956;DHT22;23776;51.592;7.180;2023-04-24T06:16:44;9.40;21.40
37956;DHT22;23776;51.592;7.180;2023-04-24T06:19:09;9.40;18.90
37956;DHT22;23776;51.592;7.180;2023-04-24T06:21:35;9.40;20.30
37956;DHT22;23776;51.592;7.180;2023-04-24T06:24:01;9.40;7.00
37956;DHT22;23776;51.592;7.180;2023-04-24T06:26:27;9.40;11.50
37956;DHT22;23776;51.592;7.180;2023-04-24T06:28:53;9.40;11.10
37956;DHT22;23776;51.592;7.180;2023-04-24T06:31:23;9.40;4.50
37956;DHT22;23776;51.592;7.180;2023-04-24T06:33:49;9.50;1.00
37956;DHT22;23776;51.592;7.180;2023-04-24T06:36:15;9.50;1.00
37956;DHT22;23776;51.592;7.180;2023-04-24T06:38:41;9.60;1.00
37956;DHT22;23776;51.592;7.180;2023-04-24T06:41:06;9.70;1.00
37956;DHT22;23776;51.592;7.180;2023-04-24T06:43:33;9.70;1.00
37956;DHT22;23776;51.592;7.180;2023-04-24T06:45:59;9.70;1.00
37956;DHT22;23776;51.592;7.180;2023-04-24T06:48:25;9.70;1.00
37956;DHT22;23776;51.592;7.180;2023-04-24T06:50:51;9.70;9.20
37956;DHT22;23776;51.592;7.180;2023-04-24T06:53:17;9.70;11.90
37956;DHT22;23776;51.592;7.180;2023-04-24T06:55:43;9.70;14.10
37956;DHT22;23776;51.592;7.180;2023-04-24T06:58:10;9.50;16.00
37956;DHT22;23776;51.592;7.180;2023-04-24T07:00:36;9.50;15.70
37956;DHT22;23776;51.592;7.180;2023-04-24T07:03:02;9.50;28.40
37956;DHT22;23776;51.592;7.180;2023-04-24T07:05:28;9.40;32.70
37956;DHT22;23776;51.592;7.180;2023-04-24T07:07:54;9.40;33.10
37956;DHT22;23776;51.592;7.180;2023-04-24T07:10:19;9.20;36.40
37956;DHT22;23776;51.592;7.180;2023-04-24T07:12:45;9.30;39.50
37956;DHT22;23776;51.592;7.180;2023-04-24T07:15:12;9.30;34.30
37956;DHT22;23776;51.592;7.180;2023-04-24T07:17:37;9.40;30.20
37956;DHT22;23776;51.592;7.180;2023-04-24T07:20:09;9.40;29.60
37956;DHT22;23776;51.592;7.180;2023-04-24T07:22:36;9.40;29.40
37956;DHT22;23776;51.592;7.180;2023-04-24T07:25:02;9.50;28.30
37956;DHT22;23776;51.592;7.180;2023-04-24T07:27:28;9.50;21.90
37956;DHT22;23776;51.592;7.180;2023-04-24T07:29:54;9.50;17.50
37956;DHT22;23776;51.592;7.180;2023-04-24T07:32:19;9.50;14.80
37956;DHT22;23776;51.592;7.180;2023-04-24T07:34:45;9.50;15.70
37956;DHT22;23776;51.592;7.180;2023-04-24T07:37:11;9.40;10.40
37956;DHT22;23776;51.592;7.180;2023-04-24T07:39:36;9.40;17.10
37956;DHT22;23776;51.592;7.180;2023-04-24T07:42:02;9.50;18.20
37956;DHT22;23776;51.592;7.180;2023-04-24T07:44:28;9.50;22.30
37956;DHT22;23776;51.592;7.180;2023-04-24T07:46:55;9.60;17.60
37956;DHT22;23776;51.592;7.180;2023-04-24T07:49:21;9.70;9.90
37956;DHT22;23776;51.592;7.180;2023-04-24T07:51:46;9.90;1.00
37956;DHT22;23776;51.592;7.180;2023-04-24T07:54:12;10.60;1.00
37956;DHT22;23776;51.592;7.180;2023-04-24T07:56:38;10.10;1.00
37956;DHT22;23776;51.592;7.180;2023-04-24T07:59:04;10.20;1.00
37956;DHT22;23776;51.592;7.180;2023-04-24T08:01:30;10.10;1.00
37956;DHT22;23776;51.592;7.180;2023-04-24T08:03:56;10.10;1.00
37956;DHT22;23776;51.592;7.180;2023-04-24T08:06:22;10.00;1.00
37956;DHT22;23776;51.592;7.180;2023-04-24T08:08:48;10.00;1.00
37956;DHT22;23776;51.592;7.180;2023-04-24T08:11:13;10.00;1.00
37956;DHT22;23776;51.592;7.180;2023-04-24T08:13:39;9.90;1.00
37956;DHT22;23776;51.592;7.180;2023-04-24T08:16:05;9.90;1.00
37956;DHT22;23776;51.592;7.180;2023-04-24T08:18:30;9.90;1.00
37956;DHT22;23776;51.592;7.180;2023-04-24T08:20:56;9.70;1.00
37956;DHT22;23776;51.592;7.180;2023-04-24T08:23:26;9.70;1.00
37956;DHT22;23776;51.592;7.180;2023-04-24T08:25:52;9.50;1.00
37956;DHT22;23776;51.592;7.180;2023-04-24T08:28:17;9.40;1.00
37956;DHT22;23776;51.592;7.180;2023-04-24T08:30:46;9.30;1.00
37956;DHT22;23776;51.592;7.180;2023-04-24T08:33:12;9.20;17.60
37956;DHT22;23776;51.592;7.180;2023-04-24T08:35:38;9.10;24.20
37956;DHT22;23776;51.592;7.180;2023-04-24T08:38:04;8.90;29.80
37956;DHT22;23776;51.592;7.180;2023-04-24T08:40:33;8.90;29.90
37956;DHT22;23776;51.592;7.180;2023-04-24T08:42:59;8.90;32.80
37956;DHT22;23776;51.592;7.180;2023-04-24T08:45:25;9.10;34.10
37956;DHT22;23776;51.592;7.180;2023-04-24T08:47:53;8.70;44.20
37956;DHT22;23776;51.592;7.180;2023-04-24T08:50:20;8.80;47.50
37956;DHT22;23776;51.592;7.180;2023-04-24T08:52:49;8.80;50.80
37956;DHT22;23776;51.592;7.180;2023-04-24T08:55:15;8.80;55.80
37956;DHT22;23776;51.592;7.180;2023-04-24T08:57:45;8.70;60.40
37956;DHT22;23776;51.592;7.180;2023-04-24T09:00:11;8.60;69.80
37956;DHT22;23776;51.592;7.180;2023-04-24T09:02:40;8.60;70.40
37956;DHT22;23776;51.592;7.180;2023-04-24T09:05:07;8.60;76.50
37956;DHT22;23776;51.592;7.180;2023-04-24T09:07:35;8.60;79.70
37956;DHT22;23776;51.592;7.180;2023-04-24T09:10:02;8.60;80.00
37956;DHT22;23776;51.592;7.180;2023-04-24T09:12:28;8.70;82.00
37956;DHT22;23776;51.592;7.180;2023-04-24T09:14:54;8.70;87.70
37956;DHT22;23776;51.592;7.180;2023-04-24T09:17:20;8.70;88.20
37956;DHT22;23776;51.592;7.180;2023-04-24T09:19:48;8.80;88.10
37956;DHT22;23776;51.592;7.180;2023-04-24T09:22:15;8.90;87.60
37956;DHT22;23776;51.592;7.180;2023-04-24T09:24:44;8.90;89.50
37956;DHT22;23776;51.592;7.180;2023-04-24T09:27:11;8.80;91.60
37956;DHT22;23776;51.592;7.180;2023-04-24T09:29:38;7.30;92.10
37956;DHT22;23776;51.592;7.180;2023-04-24T09:32:20;8.90;93.00
37956;DHT22;23776;51.592;7.180;2023-04-24T09:35:11;8.90;92.60
37956;DHT22;23776;51.592;7.180;2023-04-24T09:37:42;9.00;93.60
37956;DHT22;23776;51.592;7.180;2023-04-24T09:40:09;9.10;93.70
37956;DHT22;23776;51.592;7.180;2023-04-24T09:42:37;9.20;93.80
37956;DHT22;23776;51.592;7.180;2023-04-24T09:45:04;9.10;92.20
37956;DHT22;23776;51.592;7.180;2023-04-24T09:47:38;9.10;91.20
37956;DHT22;23776;51.592;7.180;2023-04-24T09:50:11;9.10;92.40
37956;DHT22;23776;51.592;7.180;2023-04-24T09:52:47;8.90;93.20
37956;DHT22;23776;51.592;7.180;2023-04-24T09:55:21;9.00;93.20
37956;DHT22;23776;51.592;7.180;2023-04-24T09:57:53;8.90;89.40
37956;DHT22;23776;51.592;7.180;2023-04-24T10:00:30;8.80;89.10
37956;DHT22;23776;51.592;7.180;2023-04-24T10:05:29;8.70;78.30
37956;DHT22;23776;51.592;7.180;2023-04-24T10:07:57;8.70;84.20
37956;DHT22;23776;51.592;7.180;2023-04-24T10:10:26;8.60;90.10
37956;DHT22;23776;51.592;7.180;2023-04-24T10:12:52;8.60;90.30
37956;DHT22;23776;51.592;7.180;2023-04-24T10:15:19;8.50;84.00
37956;DHT22;23776;51.592;7.180;2023-04-24T10:17:50;8.50;90.00
37956;DHT22;23776;51.592;7.180;2023-04-24T10:20:23;8.50;90.50
37956;DHT22;23776;51.592;7.180;2023-04-24T10:22:51;8.40;91.50
37956;DHT22;23776;51.592;7.180;2023-04-24T10:25:19;8.40;91.10
37956;DHT22;23776;51.592;7.180;2023-04-24T10:27:47;8.40;90.80
37956;DHT22;23776;51.592;7.180;2023-04-24T10:30:13;8.40;90.00
37956;DHT22;23776;51.592;7.180;2023-04-24T10:32:39;8.40;91.30
37956;DHT22;23776;51.592;7.180;2023-04-24T10:35:07;8.60;91.00
37956;DHT22;23776;51.592;7.180;2023-04-24T10:37:57;8.50;92.40
37956;DHT22;23776;51.592;7.180;2023-04-24T10:40:42;8.50;91.90
37956;DHT22;23776;51.592;7.180;2023-04-24T10:43:08;8.50;93.90
37956;DHT22;23776;51.592;7.180;2023-04-24T10:45:38;8.60;94.80
37956;DHT22;23776;51.592;7.180;2023-04-24T10:48:10;8.60;95.10
37956;DHT22;23776;51.592;7.180;2023-04-24T10:50:52;8.60;95.10
37956;DHT22;23776;51.592;7.180;2023-04-24T10:53:20;8.60;94.60
37956;DHT22;23776;51.592;7.180;2023-04-24T10:55:51;8.60;92.40
37956;DHT22;23776;51.592;7.180;2023-04-24T10:58:23;8.70;93.70
37956;DHT22;23776;51.592;7.180;2023-04-24T11:00:56;8.60;93.80
37956;DHT22;23776;51.592;7.180;2023-04-24T11:03:27;8.70;92.00
37956;DHT22;23776;51.592;7.180;2023-04-24T11:06:07;8.70;91.10
37956;DHT22;23776;51.592;7.180;2023-04-24T11:08:42;8.70;91.40
37956;DHT22;23776;51.592;7.180;2023-04-24T11:16:43;8.70;91.00
37956;DHT22;23776;51.592;7.180;2023-04-24T11:32:26;8.80;94.50
37956;DHT22;23776;51.592;7.180;2023-04-24T11:35:06;8.80;93.10
37956;DHT22;23776;51.592;7.180;2023-04-24T11:37:40;8.80;90.90
37956;DHT22;23776;51.592;7.180;2023-04-24T11:40:08;8.80;93.00
37956;DHT22;23776;51.592;7.180;2023-04-24T11:42:38;8.90;89.00
37956;DHT22;23776;51.592;7.180;2023-04-24T11:47:38;9.20;76.70
37956;DHT22;23776;51.592;7.180;2023-04-24T11:50:05;9.20;66.90
37956;DHT22;23776;51.592;7.180;2023-04-24T11:52:33;9.30;69.60
37956;DHT22;23776;51.592;7.180;2023-04-24T11:54:59;9.30;72.70
37956;DHT22;23776;51.592;7.180;2023-04-24T11:57:25;9.30;72.50
37956;DHT22;23776;51.592;7.180;2023-04-24T12:00:00;9.40;74.30
37956;DHT22;23776;51.592;7.180;2023-04-24T12:02:26;9.50;67.70
37956;DHT22;23776;51.592;7.180;2023-04-24T12:04:53;9.40;50.20
37956;DHT22;23776;51.592;7.180;2023-04-24T12:07:19;9.40;52.30
37956;DHT22;23776;51.592;7.180;2023-04-24T12:09:54;9.30;41.90
37956;DHT22;23776;51.592;7.180;2023-04-24T12:12:20;9.50;54.80
37956;DHT22;23776;51.592;7.180;2023-04-24T12:15:09;10.00;60.70
37956;DHT22;23776;51.592;7.180;2023-04-24T12:17:35;10.30;15.70
37956;DHT22;23776;51.592;7.180;2023-04-24T12:20:07;10.50;1.00
37956;DHT22;23776;51.592;7.180;2023-04-24T12:22:47;10.30;1.00
37956;DHT22;23776;51.592;7.180;2023-04-24T12:25:14;10.40;1.00
37956;DHT22;23776;51.592;7.180;2023-04-24T12:27:40;10.40;1.00
37956;DHT22;23776;51.592;7.180;2023-04-24T12:30:09;10.50;1.00
37956;DHT22;23776;51.592;7.180;2023-04-24T12:32:41;10.70;1.00
37956;DHT22;23776;51.592;7.180;2023-04-24T12:35:07;10.80;1.00
37956;DHT22;23776;51.592;7.180;2023-04-24T12:37:34;10.70;1.00
37956;DHT22;23776;51.592;7.180;2023-04-24T12:42:29;10.50;1.00
37956;DHT22;23776;51.592;7.180;2023-04-24T12:45:01;10.30;1.00
37956;DHT22;23776;51.592;7.180;2023-04-24T12:47:28;10.10;1.00
37956;DHT22;23776;51.592;7.180;2023-04-24T12:49:54;9.90;1.00
37956;DHT22;23776;51.592;7.180;2023-04-24T12:52:24;9.80;1.00
37956;DHT22;23776;51.592;7.180;2023-04-24T12:54:53;9.80;1.00
37956;DHT22;23776;51.592;7.180;2023-04-24T12:57:19;9.70;1.00
37956;DHT22;23776;51.592;7.180;2023-04-24T12:59:45;9.90;1.00
37956;DHT22;23776;51.592;7.180;2023-04-24T13:02:11;9.90;1.00
37956;DHT22;23776;51.592;7.180;2023-04-24T13:04:37;9.90;1.00
37956;DHT22;23776;51.592;7.180;2023-04-24T13:07:03;10.10;1.00
37956;DHT22;23776;51.592;7.180;2023-04-24T13:09:30;10.10;1.00
37956;DHT22;23776;51.592;7.180;2023-04-24T13:11:56;10.10;99.90
37956;DHT22;23776;51.592;7.180;2023-04-24T13:14:22;10.00;1.00
37956;DHT22;23776;51.592;7.180;2023-04-24T13:16:49;9.90;1.00
37956;DHT22;23776;51.592;7.180;2023-04-24T13:19:14;9.90;1.00
37956;DHT22;23776;51.592;7.180;2023-04-24T13:21:40;9.80;1.00
37956;DHT22;23776;51.592;7.180;2023-04-24T13:24:06;9.80;1.00
37956;DHT22;23776;51.592;7.180;2023-04-24T13:26:33;9.70;1.00
37956;DHT22;23776;51.592;7.180;2023-04-24T13:31:25;9.70;1.00
37956;DHT22;23776;51.592;7.180;2023-04-24T13:33:50;9.70;1.00
37956;DHT22;23776;51.592;7.180;2023-04-24T13:36:16;9.70;1.00
37956;DHT22;23776;51.592;7.180;2023-04-24T13:38:45;9.70;1.00
37956;DHT22;23776;51.592;7.180;2023-04-24T13:41:10;9.60;1.00
37956;DHT22;23776;51.592;7.180;2023-04-24T13:43:36;9.70;1.00
37956;DHT22;23776;51.592;7.180;2023-04-24T13:46:02;9.80;1.00
37956;DHT22;23776;51.592;7.180;2023-04-24T13:48:29;9.90;99.90
37956;DHT22;23776;51.592;7.180;2023-04-24T13:50:55;9.90;99.90
37956;DHT22;23776;51.592;7.180;2023-04-24T13:53:20;10.00;1.00
37956;DHT22;23776;51.592;7.180;2023-04-24T13:55:46;10.00;99.90
37956;DHT22;23776;51.592;7.180;2023-04-24T13:58:12;10.20;99.90
37956;DHT22;23776;51.592;7.180;2023-04-24T14:00:37;10.20;99.90
37956;DHT22;23776;51.592;7.180;2023-04-24T14:03:03;10.30;99.90
37956;DHT22;23776;51.592;7.180;2023-04-24T14:05:29;10.40;99.90
37956;DHT22;23776;51.592;7.180;2023-04-24T14:07:54;10.40;99.90
37956;DHT22;23776;51.592;7.180;2023-04-24T14:10:20;10.40;99.90
37956;DHT22;23776;51.592;7.180;2023-04-24T14:12:46;10.50;99.90
37956;DHT22;23776;51.592;7.180;2023-04-24T14:15:11;10.50;99.90
37956;DHT22;23776;51.592;7.180;2023-04-24T14:17:38;10.60;22.20
37956;DHT22;23776;51.592;7.180;2023-04-24T14:20:05;10.70;1.00
37956;DHT22;23776;51.592;7.180;2023-04-24T14:22:30;10.90;99.90
37956;DHT22;23776;51.592;7.180;2023-04-24T14:24:56;11.00;51.60
37956;DHT22;23776;51.592;7.180;2023-04-24T14:27:22;10.90;1.00
37956;DHT22;23776;51.592;7.180;2023-04-24T14:29:47;10.90;1.00
37956;DHT22;23776;51.592;7.180;2023-04-24T14:32:13;10.70;1.00
37956;DHT22;23776;51.592;7.180;2023-04-24T14:34:40;10.50;99.90
37956;DHT22;23776;51.592;7.180;2023-04-24T14:37:07;10.40;99.90
37956;DHT22;23776;51.592;7.180;2023-04-24T14:39:33;10.40;99.90
37956;DHT22;23776;51.592;7.180;2023-04-24T14:41:58;10.20;1.00
37956;DHT22;23776;51.592;7.180;2023-04-24T14:44:24;10.10;1.00
37956;DHT22;23776;51.592;7.180;2023-04-24T14:46:50;9.80;1.00
37956;DHT22;23776;51.592;7.180;2023-04-24T14:49:16;9.70;1.00
37956;DHT22;23776;51.592;7.180;2023-04-24T14:51:41;9.50;1.00
37956;DHT22;23776;51.592;7.180;2023-04-24T14:54:08;9.40;9.50
37956;DHT22;23776;51.592;7.180;2023-04-24T14:56:33;9.60;24.70
37956;DHT22;23776;51.592;7.180;2023-04-24T14:58:59;9.50;38.20
37956;DHT22;23776;51.592;7.180;2023-04-24T15:01:25;9.80;46.20
37956;DHT22;23776;51.592;7.180;2023-04-24T15:03:50;10.00;37.60
37956;DHT22;23776;51.592;7.180;2023-04-24T15:06:16;10.40;1.00
37956;DHT22;23776;51.592;7.180;2023-04-24T15:08:41;10.60;1.00
37956;DHT22;23776;51.592;7.180;2023-04-24T15:11:08;10.80;1.00
37956;DHT22;23776;51.592;7.180;2023-04-24T15:13:34;10.70;1.00
37956;DHT22;23776;51.592;7.180;2023-04-24T15:16:00;10.70;1.00
37956;DHT22;23776;51.592;7.180;2023-04-24T15:18:25;11.00;1.00
37956;DHT22;23776;51.592;7.180;2023-04-24T15:20:52;11.80;1.00
37956;DHT22;23776;51.592;7.180;2023-04-24T15:23:18;12.10;99.90
37956;DHT22;23776;51.592;7.180;2023-04-24T15:25:44;13.00;1.00
37956;DHT22;23776;51.592;7.180;2023-04-24T15:28:10;13.10;1.00
37956;DHT22;23776;51.592;7.180;2023-04-24T15:30:35;13.00;1.00
37956;DHT22;23776;51.592;7.180;2023-04-24T15:33:01;13.00;99.90
37956;DHT22;23776;51.592;7.180;2023-04-24T15:35:27;13.00;1.00
37956;DHT22;23776;51.592;7.180;2023-04-24T15:37:53;12.40;70.90
37956;DHT22;23776;51.592;7.180;2023-04-24T15:40:19;12.20;99.90
37956;DHT22;23776;51.592;7.180;2023-04-24T15:42:45;11.80;99.90
37956;DHT22;23776;51.592;7.180;2023-04-24T15:45:11;11.60;1.00
37956;DHT22;23776;51.592;7.180;2023-04-24T15:47:37;11.20;1.00
37956;DHT22;23776;51.592;7.180;2023-04-24T15:50:03;11.00;1.00
37956;DHT22;23776;51.592;7.180;2023-04-24T15:52:29;10.80;99.90
37956;DHT22;23776;51.592;7.180;2023-04-24T15:54:55;10.60;30.40
37956;DHT22;23776;51.592;7.180;2023-04-24T15:57:21;10.50;99.90
37956;DHT22;23776;51.592;7.180;2023-04-24T15:59:46;10.40;99.90
37956;DHT22;23776;51.592;7.180;2023-04-24T16:02:13;10.30;99.90
37956;DHT22;23776;51.592;7.180;2023-04-24T16:04:47;10.20;27.70
37956;DHT22;23776;51.592;7.180;2023-04-24T16:07:14;10.20;99.90
37956;DHT22;23776;51.592;7.180;2023-04-24T16:09:40;10.20;99.90
37956;DHT22;23776;51.592;7.180;2023-04-24T16:12:06;10.20;99.90
37956;DHT22;23776;51.592;7.180;2023-04-24T16:14:33;11.50;1.00
37956;DHT22;23776;51.592;7.180;2023-04-24T16:16:59;13.60;99.90